createdAt,value
2022-08-29T00:01:29.030Z,99661.03
2022-08-29T00:03:57.832Z,99665.03
2022-08-29T00:06:26.145Z,99661.91
2022-08-29T00:08:53.555Z,99656.84
2022-08-29T00:11:21.852Z,99662.03
2022-08-29T00:13:49.439Z,99664.78
2022-08-29T00:16:17.068Z,99666.03
2022-08-29T00:18:45.365Z,99660.97
2022-08-29T00:21:12.860Z,99664.63
2022-08-29T00:23:40.530Z,99666.50
2022-08-29T00:26:08.187Z,99669.41
2022-08-29T00:28:35.707Z,99672.28
2022-08-29T00:31:03.641Z,99669.38
2022-08-29T00:33:31.357Z,99664.94
2022-08-29T00:35:59.030Z,99661.25
2022-08-29T00:38:27.960Z,99668.22
2022-08-29T00:40:57.282Z,99667.38
2022-08-29T00:43:33.846Z,99673.91
2022-08-29T00:46:04.298Z,99678.09
2022-08-29T00:48:34.548Z,99673.28
2022-08-29T00:51:06.372Z,99675.47
2022-08-29T00:53:40.928Z,99684.66
2022-08-29T00:56:10.310Z,99674.56
2022-08-29T00:58:41.148Z,99680.13
2022-08-29T01:01:09.206Z,99683.78
2022-08-29T01:03:37.342Z,99690.25
2022-08-29T01:06:12.899Z,99681.41
2022-08-29T01:08:41.783Z,99677.53
2022-08-29T01:11:29.257Z,99684.66
2022-08-29T01:13:57.063Z,99676.66
2022-08-29T01:16:25.270Z,99677.78
2022-08-29T01:18:56.486Z,99682.72
2022-08-29T01:21:34.969Z,99686.75
2022-08-29T01:24:24.109Z,99692.22
2022-08-29T01:26:51.743Z,99686.03
2022-08-29T01:29:19.174Z,99696.37
2022-08-29T01:31:56.973Z,99694.75
2022-08-29T01:34:28.017Z,99692.44
2022-08-29T01:37:01.212Z,99698.56
2022-08-29T01:39:31.945Z,99692.72
2022-08-29T01:42:01.470Z,99697.41
2022-08-29T01:44:29.270Z,99695.28
2022-08-29T01:47:02.756Z,99691.59
2022-08-29T01:49:34.480Z,99692.06
2022-08-29T01:52:03.969Z,99688.13
2022-08-29T01:54:32.783Z,99689.44
2022-08-29T01:57:01.263Z,99693.16
2022-08-29T01:59:30.226Z,99695.63
2022-08-29T02:02:24.245Z,99701.41
2022-08-29T02:04:51.979Z,99697.91
2022-08-29T02:07:23.086Z,99698.53
2022-08-29T02:09:50.861Z,99702.25
2022-08-29T02:12:20.582Z,99695.72
2022-08-29T02:14:48.988Z,99695.78
2022-08-29T02:17:16.454Z,99694.97
2022-08-29T02:19:44.231Z,99685.09
2022-08-29T02:22:11.812Z,99696.78
2022-08-29T02:24:39.522Z,99681.97
2022-08-29T02:27:09.375Z,99679.22
2022-08-29T02:29:38.374Z,99677.59
2022-08-29T02:32:08.484Z,99672.72
2022-08-29T02:34:36.844Z,99677.41
2022-08-29T02:37:05.101Z,99668.00
2022-08-29T02:39:33.883Z,99673.31
2022-08-29T02:42:02.128Z,99669.97
2022-08-29T02:44:29.808Z,99661.34
2022-08-29T02:46:57.353Z,99666.56
2022-08-29T02:49:25.083Z,99677.91
2022-08-29T02:51:52.490Z,99674.66
2022-08-29T02:54:19.869Z,99670.91
2022-08-29T02:56:47.510Z,99668.97
2022-08-29T02:59:14.938Z,99673.66
2022-08-29T03:01:42.362Z,99677.62
2022-08-29T03:04:10.051Z,99673.87
2022-08-29T03:06:37.424Z,99673.22
2022-08-29T03:09:04.979Z,99682.97
2022-08-29T03:11:32.652Z,99680.53
2022-08-29T03:14:00.973Z,99687.81
2022-08-29T03:16:28.437Z,99683.28
2022-08-29T03:18:56.163Z,99682.66
2022-08-29T03:21:25.821Z,99691.72
2022-08-29T03:23:53.775Z,99689.63
2022-08-29T03:26:21.425Z,99701.16
2022-08-29T03:28:48.836Z,99698.22
2022-08-29T03:31:16.365Z,99700.03
2022-08-29T03:33:44.081Z,99703.37
2022-08-29T03:36:13.977Z,99706.69
2022-08-29T03:38:43.468Z,99710.44
2022-08-29T03:41:11.388Z,99714.28
2022-08-29T03:43:38.914Z,99712.72
2022-08-29T03:46:06.432Z,99712.34
2022-08-29T03:48:34.147Z,99723.25
2022-08-29T03:51:01.567Z,99714.78
2022-08-29T03:53:30.747Z,99719.44
2022-08-29T03:55:58.518Z,99719.75
2022-08-29T03:58:26.040Z,99738.91
2022-08-29T04:00:53.413Z,99740.38
2022-08-29T04:03:24.971Z,99746.16
2022-08-29T04:05:59.033Z,99740.94
2022-08-29T04:08:26.814Z,99751.09
2022-08-29T04:10:54.213Z,99749.84
2022-08-29T04:15:50.194Z,99742.28
2022-08-29T04:18:21.248Z,99757.44
2022-08-29T04:20:49.117Z,99750.31
2022-08-29T04:23:16.773Z,99749.53
2022-08-29T04:25:44.177Z,99746.78
2022-08-29T04:28:13.488Z,99746.75
2022-08-29T04:30:51.184Z,99746.28
2022-08-29T04:33:22.358Z,99754.44
2022-08-29T04:35:52.266Z,99756.22
2022-08-29T04:38:19.785Z,99766.97
2022-08-29T04:40:47.589Z,99771.53
2022-08-29T04:43:15.278Z,99765.19
2022-08-29T04:45:42.709Z,99767.78
2022-08-29T04:48:10.851Z,99766.81
2022-08-29T04:50:39.028Z,99769.25
2022-08-29T04:53:06.417Z,99766.31
2022-08-29T04:55:33.784Z,99769.56
2022-08-29T04:58:01.639Z,99772.03
2022-08-29T05:00:31.415Z,99770.56
2022-08-29T05:02:59.477Z,99767.94
2022-08-29T05:05:27.883Z,99765.00
2022-08-29T05:07:55.300Z,99768.78
2022-08-29T05:10:22.892Z,99765.97
2022-08-29T05:12:51.649Z,99767.69
2022-08-29T05:15:19.068Z,99769.66
2022-08-29T05:17:46.457Z,99777.16
2022-08-29T05:20:14.110Z,99770.63
2022-08-29T05:22:42.254Z,99768.22
2022-08-29T05:25:15.863Z,99776.16
2022-08-29T05:27:46.013Z,99779.75
2022-08-29T05:30:13.620Z,99772.37
2022-08-29T05:32:40.998Z,99778.03
2022-08-29T05:35:09.371Z,99780.47
2022-08-29T05:37:37.265Z,99779.78
2022-08-29T05:40:05.484Z,99777.50
2022-08-29T05:42:33.203Z,99787.50
2022-08-29T05:45:00.596Z,99792.81
2022-08-29T05:47:28.136Z,99788.84
2022-08-29T05:49:55.798Z,99794.41
2022-08-29T05:52:23.438Z,99788.31
2022-08-29T05:54:50.986Z,99805.88
2022-08-29T05:57:22.400Z,99783.25
2022-08-29T05:59:52.146Z,99796.34
2022-08-29T06:02:21.150Z,99797.41
2022-08-29T06:04:49.338Z,99796.66
2022-08-29T06:07:16.898Z,99791.88
2022-08-29T06:09:44.666Z,99799.91
2022-08-29T06:12:16.099Z,99797.84
2022-08-29T06:14:50.439Z,99808.16
2022-08-29T06:17:18.650Z,99803.66
2022-08-29T06:19:46.346Z,99808.09
2022-08-29T06:22:13.854Z,99812.84
2022-08-29T06:24:42.597Z,99822.78
2022-08-29T06:27:12.300Z,99819.22
2022-08-29T06:29:43.009Z,99820.59
2022-08-29T06:32:12.238Z,99822.44
2022-08-29T06:34:39.829Z,99823.38
2022-08-29T06:37:07.281Z,99825.16
2022-08-29T06:39:35.079Z,99828.69
2022-08-29T06:42:02.491Z,99830.09
2022-08-29T06:44:31.385Z,99835.88
2022-08-29T06:46:59.335Z,99834.84
2022-08-29T06:49:27.726Z,99838.72
2022-08-29T06:51:58.078Z,99840.28
2022-08-29T06:54:28.203Z,99847.25
2022-08-29T06:56:56.868Z,99845.00
2022-08-29T06:59:24.577Z,99844.56
2022-08-29T07:01:52.876Z,99843.66
2022-08-29T07:04:20.617Z,99848.37
2022-08-29T07:06:48.987Z,99850.81
2022-08-29T07:09:17.009Z,99855.06
2022-08-29T07:11:44.498Z,99855.03
2022-08-29T07:14:12.666Z,99850.28
2022-08-29T07:16:41.290Z,99843.63
2022-08-29T07:19:10.363Z,99842.94
2022-08-29T07:21:38.597Z,99851.94
2022-08-29T07:24:06.867Z,99846.84
2022-08-29T07:26:38.870Z,99857.78
2022-08-29T07:29:10.437Z,99843.81
2022-08-29T07:31:39.254Z,99850.78
2022-08-29T07:34:07.714Z,99853.34
2022-08-29T07:36:35.710Z,99864.16
2022-08-29T07:39:06.650Z,99848.72
2022-08-29T07:41:34.345Z,99857.25
2022-08-29T07:44:01.722Z,99860.41
2022-08-29T07:46:29.185Z,99854.38
2022-08-29T07:48:58.710Z,99850.13
2022-08-29T07:51:27.134Z,99852.22
2022-08-29T07:53:55.262Z,99855.81
2022-08-29T07:56:26.715Z,99861.63
2022-08-29T07:58:55.012Z,99861.63
2022-08-29T08:01:23.573Z,99859.72
2022-08-29T08:03:52.037Z,99853.53
2022-08-29T08:06:22.335Z,99856.09
2022-08-29T08:08:50.378Z,99860.72
2022-08-29T08:11:20.097Z,99871.44
2022-08-29T08:13:48.074Z,99874.97
2022-08-29T08:16:19.008Z,99876.75
2022-08-29T08:18:46.757Z,99866.53
2022-08-29T08:21:14.467Z,99861.06
2022-08-29T08:23:41.982Z,99869.25
2022-08-29T08:26:10.829Z,99867.59
2022-08-29T08:28:38.606Z,99872.13
2022-08-29T08:31:07.977Z,99868.75
2022-08-29T08:33:38.774Z,99874.91
2022-08-29T08:36:18.550Z,99870.16
2022-08-29T08:38:46.869Z,99869.75
2022-08-29T08:41:27.430Z,99872.97
2022-08-29T08:44:07.181Z,99867.84
2022-08-29T08:46:38.755Z,99866.50
2022-08-29T08:49:11.236Z,99874.94
2022-08-29T08:51:43.312Z,99876.16
2022-08-29T08:54:16.645Z,99872.88
2022-08-29T08:56:51.330Z,99884.25
2022-08-29T08:59:24.554Z,99876.97
2022-08-29T09:02:06.610Z,99867.81
2022-08-29T09:05:06.834Z,99876.38
2022-08-29T09:07:39.965Z,99867.38
2022-08-29T09:10:28.904Z,99863.94
2022-08-29T09:13:21.462Z,99877.88
2022-08-29T09:15:52.660Z,99873.75
2022-08-29T09:18:39.429Z,99869.03
2022-08-29T09:21:37.020Z,99860.06
2022-08-29T09:24:00.069Z,99872.75
2022-08-29T09:26:27.717Z,99873.34
2022-08-29T09:28:55.248Z,99856.63
2022-08-29T09:31:24.414Z,99861.81
2022-08-29T09:33:58.162Z,99860.88
2022-08-29T09:36:52.030Z,99866.41
2022-08-29T09:39:25.712Z,99865.63
2022-08-29T09:42:14.682Z,99862.69
2022-08-29T09:44:52.188Z,99869.22
2022-08-29T09:47:23.773Z,99870.03
2022-08-29T09:50:08.902Z,99868.72
2022-08-29T09:52:39.361Z,99869.50
2022-08-29T09:55:24.457Z,99871.72
2022-08-29T09:57:55.013Z,99877.16
2022-08-29T10:00:31.598Z,99862.06
2022-08-29T10:03:01.102Z,99868.69
2022-08-29T10:05:40.731Z,99875.44
2022-08-29T10:08:25.591Z,99871.91
2022-08-29T10:10:59.686Z,99870.84
2022-08-29T10:13:40.966Z,99872.16
2022-08-29T10:17:23.118Z,99872.56
2022-08-29T10:19:50.966Z,99874.09
2022-08-29T10:22:29.691Z,99870.84
2022-08-29T10:25:07.114Z,99874.25
2022-08-29T10:27:43.199Z,99870.47
2022-08-29T10:30:20.742Z,99875.59
2022-08-29T10:33:04.734Z,99876.09
2022-08-29T10:35:54.680Z,99875.62
2022-08-29T10:38:43.592Z,99865.72
2022-08-29T10:41:23.877Z,99876.91
2022-08-29T10:44:01.285Z,99872.47
2022-08-29T10:46:57.034Z,99867.28
2022-08-29T10:49:45.022Z,99862.94
2022-08-29T10:52:34.513Z,99866.22
2022-08-29T10:55:19.340Z,99868.34
2022-08-29T10:58:02.124Z,99854.75
2022-08-29T11:00:45.401Z,99857.19
2022-08-29T11:03:23.111Z,99854.19
2022-08-29T11:06:03.899Z,99841.97
2022-08-29T11:08:40.192Z,99849.78
2022-08-29T11:11:07.570Z,99852.97
2022-08-29T11:13:40.809Z,99841.78
2022-08-29T11:16:21.795Z,99841.59
2022-08-29T11:19:01.415Z,99844.56
2022-08-29T11:21:43.215Z,99845.09
2022-08-29T11:24:12.368Z,99845.88
2022-08-29T11:27:02.620Z,99843.81
2022-08-29T11:29:51.529Z,99836.19
2022-08-29T11:32:33.590Z,99830.84
2022-08-29T11:35:24.091Z,99838.25
2022-08-29T11:38:04.973Z,99832.03
2022-08-29T11:43:29.156Z,99838.12
2022-08-29T11:46:06.200Z,99832.31
2022-08-29T11:48:38.703Z,99834.31
2022-08-29T11:51:33.259Z,99833.41
2022-08-29T11:54:40.330Z,99832.66
2022-08-29T11:57:07.849Z,99833.44
2022-08-29T11:59:56.642Z,99831.69
2022-08-29T12:02:30.307Z,99832.66
2022-08-29T12:05:29.778Z,99830.66
2022-08-29T12:08:26.360Z,99824.75
2022-08-29T12:11:09.545Z,99821.75
2022-08-29T12:13:49.135Z,99819.84
2022-08-29T12:16:53.504Z,99824.34
2022-08-29T12:19:44.842Z,99824.19
2022-08-29T12:22:50.857Z,99821.00
2022-08-29T12:25:27.302Z,99820.66
2022-08-29T12:28:02.768Z,99814.22
2022-08-29T12:30:35.822Z,99815.41
2022-08-29T12:33:36.130Z,99814.28
2022-08-29T12:36:18.135Z,99807.12
2022-08-29T12:39:06.823Z,99802.28
2022-08-29T12:41:47.116Z,99806.28
2022-08-29T12:44:17.253Z,99794.50
2022-08-29T12:46:46.805Z,99789.47
2022-08-29T12:49:23.609Z,99787.97
2022-08-29T12:51:56.870Z,99797.09
2022-08-29T12:54:41.980Z,99792.31
2022-08-29T12:57:20.088Z,99792.28
2022-08-29T12:59:48.182Z,99782.22
2022-08-29T13:02:36.431Z,99786.69
2022-08-29T13:05:17.989Z,99771.25
2022-08-29T13:08:12.497Z,99775.13
2022-08-29T13:10:52.485Z,99766.72
2022-08-29T13:13:22.056Z,99774.00
2022-08-29T13:15:50.905Z,99777.00
2022-08-29T13:18:18.398Z,99768.97
2022-08-29T13:20:47.505Z,99761.84
2022-08-29T13:23:24.650Z,99766.47
2022-08-29T13:25:56.803Z,99764.13
2022-08-29T13:28:28.414Z,99765.78
2022-08-29T13:31:11.296Z,99757.94
2022-08-29T13:34:00.409Z,99742.31
2022-08-29T13:36:28.041Z,99754.28
2022-08-29T13:39:17.255Z,99753.59
2022-08-29T13:41:47.872Z,99752.72
2022-08-29T13:44:20.451Z,99741.87
2022-08-29T13:46:51.293Z,99747.69
2022-08-29T13:49:24.713Z,99757.19
2022-08-29T13:51:52.608Z,99750.78
2022-08-29T13:54:20.504Z,99740.19
2022-08-29T13:56:53.884Z,99748.56
2022-08-29T13:59:25.856Z,99752.78
2022-08-29T14:02:10.459Z,99743.66
2022-08-29T14:04:40.807Z,99744.34
2022-08-29T14:07:11.820Z,99741.91
2022-08-29T14:09:42.077Z,99739.06
2022-08-29T14:12:09.704Z,99749.22
2022-08-29T14:14:37.070Z,99750.09
2022-08-29T14:17:05.157Z,99742.31
2022-08-29T14:19:32.740Z,99738.50
2022-08-29T14:22:00.665Z,99743.97
2022-08-29T14:24:31.679Z,99741.37
2022-08-29T14:27:01.171Z,99740.09
2022-08-29T14:29:31.095Z,99744.53
2022-08-29T14:31:59.437Z,99738.06
2022-08-29T14:34:32.614Z,99743.09
2022-08-29T14:37:01.406Z,99746.19
2022-08-29T14:39:29.100Z,99738.34
2022-08-29T14:41:56.820Z,99740.03
2022-08-29T14:44:24.244Z,99737.78
2022-08-29T14:46:51.913Z,99745.50
2022-08-29T14:49:19.657Z,99734.56
2022-08-29T14:51:47.198Z,99735.22
2022-08-29T14:54:15.139Z,99731.66
2022-08-29T14:56:50.710Z,99736.91
2022-08-29T14:59:20.067Z,99737.34
2022-08-29T15:01:53.950Z,99733.78
2022-08-29T15:04:34.956Z,99731.81
2022-08-29T15:07:08.451Z,99736.44
2022-08-29T15:09:36.256Z,99737.88
2022-08-29T15:12:03.961Z,99735.31
2022-08-29T15:14:31.944Z,99732.44
2022-08-29T15:16:59.341Z,99734.28
2022-08-29T15:22:14.412Z,99742.44
2022-08-29T15:24:42.118Z,99735.91
2022-08-29T15:27:09.530Z,99740.09
2022-08-29T15:29:38.049Z,99740.81
2022-08-29T15:32:05.664Z,99733.50
2022-08-29T15:34:33.380Z,99731.56
2022-08-29T15:37:01.794Z,99728.34
2022-08-29T15:39:29.271Z,99726.25
2022-08-29T15:41:58.902Z,99717.31
2022-08-29T15:44:28.500Z,99722.81
2022-08-29T15:46:56.737Z,99734.84
2022-08-29T15:49:25.821Z,99741.75
2022-08-29T15:51:54.443Z,99738.97
2022-08-29T15:54:23.000Z,99737.84
2022-08-29T15:56:50.807Z,99735.38
2022-08-29T15:59:31.000Z,99729.84
2022-08-29T16:02:10.272Z,99731.34
2022-08-29T16:04:39.310Z,99729.41
2022-08-29T16:07:06.747Z,99727.78
2022-08-29T16:09:34.235Z,99730.00
2022-08-29T16:12:01.888Z,99741.34
2022-08-29T16:14:58.627Z,99731.69
2022-08-29T16:17:20.361Z,99727.16
2022-08-29T16:19:47.746Z,99722.50
2022-08-29T16:22:15.110Z,99722.69
2022-08-29T16:24:42.826Z,99722.19
2022-08-29T16:27:10.535Z,99725.53
2022-08-29T16:29:39.191Z,99720.41
2022-08-29T16:32:07.784Z,99724.84
2022-08-29T16:34:35.157Z,99724.56
2022-08-29T16:37:02.608Z,99726.75
2022-08-29T16:39:30.417Z,99726.59
2022-08-29T16:41:58.846Z,99733.03
2022-08-29T16:44:26.361Z,99739.22
2022-08-29T16:46:54.158Z,99739.88
2022-08-29T16:49:21.664Z,99739.91
2022-08-29T16:51:49.067Z,99743.47
2022-08-29T16:54:16.728Z,99745.06
2022-08-29T16:56:44.696Z,99760.13
2022-08-29T16:59:12.669Z,99759.84
2022-08-29T17:01:46.311Z,99767.16
2022-08-29T17:04:19.514Z,99762.09
2022-08-29T17:06:48.107Z,99761.38
2022-08-29T17:09:17.392Z,99765.97
2022-08-29T17:11:47.032Z,99777.69
2022-08-29T17:14:15.766Z,99774.78
2022-08-29T17:16:45.824Z,99780.28
2022-08-29T17:19:14.821Z,99779.06
2022-08-29T17:21:43.109Z,99783.56
2022-08-29T17:24:11.507Z,99781.94
2022-08-29T17:26:41.365Z,99781.50
2022-08-29T17:29:09.671Z,99789.34
2022-08-29T17:31:38.959Z,99782.97
2022-08-29T17:34:08.576Z,99789.25
2022-08-29T17:36:37.468Z,99790.91
2022-08-29T17:39:05.669Z,99792.16
2022-08-29T17:41:33.625Z,99791.41
2022-08-29T17:44:03.581Z,99792.31
2022-08-29T17:46:31.015Z,99807.59
2022-08-29T17:48:58.461Z,99803.97
2022-08-29T17:51:26.244Z,99807.44
2022-08-29T17:53:54.314Z,99816.13
2022-08-29T17:56:29.465Z,99818.72
2022-08-29T17:58:58.539Z,99823.88
2022-08-29T18:01:25.960Z,99829.38
2022-08-29T18:03:59.938Z,99827.75
2022-08-29T18:06:31.684Z,99830.81
2022-08-29T18:09:00.229Z,99837.84
2022-08-29T18:11:27.731Z,99841.50
2022-08-29T18:13:55.293Z,99843.28
2022-08-29T18:16:23.027Z,99845.06
2022-08-29T18:18:51.615Z,99842.13
2022-08-29T18:21:19.046Z,99850.38
2022-08-29T18:23:46.718Z,99848.03
2022-08-29T18:26:14.895Z,99850.81
2022-08-29T18:28:42.263Z,99852.28
2022-08-29T18:31:10.122Z,99850.59
2022-08-29T18:33:59.729Z,99856.87
2022-08-29T18:36:32.066Z,99857.84
2022-08-29T18:39:00.566Z,99855.44
2022-08-29T18:41:29.247Z,99862.56
2022-08-29T18:43:57.096Z,99870.66
2022-08-29T18:46:25.680Z,99872.91
2022-08-29T18:48:53.628Z,99872.59
2022-08-29T18:51:21.405Z,99863.91
2022-08-29T18:53:49.183Z,99876.19
2022-08-29T18:56:16.918Z,99864.34
2022-08-29T18:58:44.681Z,99868.28
2022-08-29T19:01:28.278Z,99871.53
2022-08-29T19:03:57.865Z,99874.13
2022-08-29T19:06:27.044Z,99870.87
2022-08-29T19:08:55.133Z,99877.53
2022-08-29T19:11:23.342Z,99872.94
2022-08-29T19:13:52.613Z,99880.09
2022-08-29T19:16:21.351Z,99879.75
2022-08-29T19:18:49.844Z,99883.38
2022-08-29T19:21:17.270Z,99884.25
2022-08-29T19:23:52.126Z,99882.53
2022-08-29T19:26:34.532Z,99879.09
2022-08-29T19:29:06.593Z,99882.19
2022-08-29T19:31:34.524Z,99883.09
2022-08-29T19:34:02.090Z,99891.91
2022-08-29T19:36:29.555Z,99895.63
2022-08-29T19:38:57.237Z,99901.66
2022-08-29T19:41:25.235Z,99903.38
2022-08-29T19:43:52.771Z,99898.16
2022-08-29T19:46:23.076Z,99903.84
2022-08-29T19:48:52.497Z,99899.94
2022-08-29T19:51:25.011Z,99899.09
2022-08-29T19:53:57.107Z,99896.19
2022-08-29T19:56:26.384Z,99900.25
2022-08-29T19:58:54.943Z,99899.34
2022-08-29T20:01:22.557Z,99898.72
2022-08-29T20:03:50.251Z,99909.53
2022-08-29T20:06:20.917Z,99900.25
2022-08-29T20:08:48.358Z,99901.97
2022-08-29T20:11:23.059Z,99900.47
2022-08-29T20:13:52.313Z,99904.84
2022-08-29T20:16:23.294Z,99903.56
2022-08-29T20:18:52.191Z,99905.75
2022-08-29T20:21:20.928Z,99902.37
2022-08-29T20:23:54.762Z,99903.53
2022-08-29T20:26:28.692Z,99908.28
2022-08-29T20:28:56.210Z,99904.59
2022-08-29T20:31:23.662Z,99909.47
2022-08-29T20:33:52.649Z,99908.38
2022-08-29T20:36:42.151Z,99910.63
2022-08-29T20:39:12.214Z,99910.16
2022-08-29T20:41:39.946Z,99914.22
2022-08-29T20:44:07.733Z,99918.16
2022-08-29T20:46:42.108Z,99922.97
2022-08-29T20:49:11.590Z,99923.47
2022-08-29T20:51:40.103Z,99915.06
2022-08-29T20:54:07.511Z,99918.72
2022-08-29T20:56:35.024Z,99912.88
2022-08-29T20:59:03.149Z,99915.94
2022-08-29T21:01:30.575Z,99915.44
2022-08-29T21:04:20.840Z,99910.19
2022-08-29T21:06:53.765Z,99913.09
2022-08-29T21:09:22.450Z,99916.97
2022-08-29T21:11:51.682Z,99907.31
2022-08-29T21:14:19.581Z,99909.31
2022-08-29T21:16:47.449Z,99905.16
2022-08-29T21:19:15.111Z,99905.50
2022-08-29T21:21:43.497Z,99903.41
2022-08-29T21:24:11.429Z,99899.31
2022-08-29T21:26:39.630Z,99903.00
2022-08-29T21:29:08.050Z,99908.69
2022-08-29T21:31:35.958Z,99901.72
2022-08-29T21:34:07.131Z,99911.75
2022-08-29T21:36:36.090Z,99919.09
2022-08-29T21:39:05.613Z,99909.87
2022-08-29T21:41:33.942Z,99906.22
2022-08-29T21:44:01.325Z,99907.47
2022-08-29T21:46:31.709Z,99902.63
2022-08-29T21:49:01.193Z,99904.56
2022-08-29T21:51:30.220Z,99919.09
2022-08-29T21:53:58.461Z,99918.50
2022-08-29T21:56:28.029Z,99919.34
2022-08-29T21:58:56.951Z,99912.38
2022-08-29T22:01:27.777Z,99921.00
2022-08-29T22:04:00.028Z,99920.00
2022-08-29T22:06:28.219Z,99919.69
2022-08-29T22:08:56.185Z,99920.69
2022-08-29T22:11:34.590Z,99919.03
2022-08-29T22:14:07.135Z,99921.59
2022-08-29T22:16:35.596Z,99918.75
2022-08-29T22:19:09.219Z,99916.28
2022-08-29T22:21:49.389Z,99921.06
2022-08-29T22:24:17.854Z,99914.22
2022-08-29T22:26:46.618Z,99926.34
2022-08-29T22:29:15.802Z,99923.19
2022-08-29T22:31:44.579Z,99922.91
2022-08-29T22:34:13.681Z,99915.38
2022-08-29T22:36:41.094Z,99931.44
2022-08-29T22:39:08.962Z,99938.22
2022-08-29T22:41:36.868Z,99932.72
2022-08-29T22:46:53.930Z,99940.66
2022-08-29T22:49:21.467Z,99939.81
2022-08-29T22:51:49.064Z,99941.47
2022-08-29T22:54:34.948Z,99942.84
2022-08-29T22:57:08.818Z,99950.72
2022-08-29T22:59:37.249Z,99944.88
2022-08-29T23:02:06.154Z,99948.63
2022-08-29T23:04:34.117Z,99951.06
2022-08-29T23:07:02.329Z,99955.28
2022-08-29T23:09:33.559Z,99953.38
2022-08-29T23:12:05.378Z,99962.78
2022-08-29T23:14:35.904Z,99960.00
2022-08-29T23:17:05.174Z,99960.88
2022-08-29T23:19:33.515Z,99957.09
2022-08-29T23:22:02.349Z,99960.34
2022-08-29T23:24:31.235Z,99959.53
2022-08-29T23:26:58.943Z,99959.19
2022-08-29T23:29:27.096Z,99959.88
2022-08-29T23:31:54.862Z,99963.63
2022-08-29T23:34:22.348Z,99972.25
2022-08-29T23:36:49.781Z,99964.75
2022-08-29T23:39:17.434Z,99973.34
2022-08-29T23:41:44.802Z,99973.34
2022-08-29T23:44:12.257Z,99971.25
2022-08-29T23:46:39.975Z,99978.75
2022-08-29T23:49:07.495Z,99972.06
2022-08-29T23:51:35.024Z,99969.28
2022-08-29T23:54:02.658Z,99967.34
2022-08-29T23:56:30.033Z,99970.09
2022-08-29T23:58:57.824Z,99963.94
